Time;durP1;ratioP1;P1;durP2;ratioP2;P2;SDS_P1;SDS_P2;PMS_P1;PMS_P2;Temp;Humidity;BMP_temperature;BMP_pressure;BME280_temperature;BME280_humidity;BME280_pressure;Samples;Min_cycle;Max_cycle;Signal;HPM_P1;HPM_P2
2021/06/01 00:00:10;;;;;;;7.87;3.87;;;;;;;9.78;68.38;99621.20;1743855;82;21018;-71
2021/06/01 00:02:36;;;;;;;8.23;3.72;;;;;;;9.70;68.63;99623.98;1743139;82;21058;-71
2021/06/01 00:05:05;;;;;;;7.53;4.22;;;;;;;9.68;68.77;99618.33;1741741;82;21035;-71
2021/06/01 00:07:32;;;;;;;6.33;4.10;;;;;;;9.75;68.66;99617.91;1742127;82;21081;-72
2021/06/01 00:09:58;;;;;;;6.90;3.77;;;;;;;9.71;68.87;99628.33;1744212;82;21094;-71
2021/06/01 00:12:25;;;;;;;7.45;4.08;;;;;;;9.61;69.14;99630.25;1743141;82;21668;-72
2021/06/01 00:14:55;;;;;;;6.97;3.90;;;;;;;9.54;69.39;99623.72;1743005;82;21692;-71
2021/06/01 00:17:22;;;;;;;6.78;3.98;;;;;;;9.56;69.38;99637.64;1741868;82;21062;-72
2021/06/01 00:19:48;;;;;;;9.18;4.75;;;;;;;9.67;69.17;99631.64;1742672;81;21058;-71
2021/06/01 00:22:15;;;;;;;8.58;4.83;;;;;;;9.62;69.28;99631.95;1742819;82;21566;-72
2021/06/01 00:24:42;;;;;;;8.55;4.90;;;;;;;9.57;69.45;99622.66;1741762;82;21577;-71
2021/06/01 00:27:08;;;;;;;7.37;4.72;;;;;;;9.50;69.67;99619.58;1742512;82;21629;-71
2021/06/01 00:29:35;;;;;;;9.28;3.95;;;;;;;9.41;69.82;99622.39;1741686;82;21023;-71
2021/06/01 00:32:02;;;;;;;7.25;4.47;;;;;;;9.42;69.90;99621.91;1743190;82;20982;-72
2021/06/01 00:34:29;;;;;;;6.42;3.98;;;;;;;9.51;69.71;99621.27;1742110;82;21101;-71
2021/06/01 00:36:57;;;;;;;8.55;4.58;;;;;;;9.47;69.92;99622.44;1738969;82;21042;-71
2021/06/01 00:39:24;;;;;;;8.38;4.75;;;;;;;9.35;70.21;99624.12;1743081;82;21126;-71
2021/06/01 00:41:50;;;;;;;9.88;4.42;;;;;;;9.26;70.50;99630.85;1741247;82;21074;-71
2021/06/01 00:44:16;;;;;;;6.60;4.03;;;;;;;9.25;70.62;99623.05;1744255;82;21147;-72
2021/06/01 00:46:44;;;;;;;10.20;4.60;;;;;;;9.37;70.45;99626.65;1722061;82;21093;-71
2021/06/01 00:49:10;;;;;;;9.48;4.92;;;;;;;9.38;70.57;99620.43;1742783;82;21070;-71
2021/06/01 00:51:37;;;;;;;8.55;4.50;;;;;;;9.31;70.74;99630.07;1743389;82;21113;-71
2021/06/01 00:54:04;;;;;;;7.90;4.50;;;;;;;9.23;70.95;99617.84;1743813;82;21656;-71
2021/06/01 00:56:32;;;;;;;10.25;4.80;;;;;;;9.24;70.98;99618.71;1744575;82;21042;-72
2021/06/01 00:58:59;;;;;;;8.00;3.80;;;;;;;9.35;70.75;99624.95;1742732;82;21609;-72
2021/06/01 01:01:25;;;;;;;9.20;4.12;;;;;;;9.28;70.90;99623.66;1732431;82;21626;-71
2021/06/01 01:03:53;;;;;;;8.00;3.85;;;;;;;9.18;71.17;99619.95;1742981;82;21030;-71
2021/06/01 01:06:55;;;;;;;11.10;3.62;;;;;;;9.12;71.40;99630.94;1744209;82;21605;-71
2021/06/01 01:09:19;;;;;;;8.28;4.40;;;;;;;9.18;71.26;99622.59;1744441;82;21011;-72
2021/06/01 01:12:09;;;;;;;8.90;3.92;;;;;;;9.19;71.34;99628.24;1751671;82;21026;-71
2021/06/01 01:14:49;;;;;;;7.28;4.40;;;;;;;9.10;71.53;99631.02;1750930;82;22510;-71
2021/06/01 01:17:19;;;;;;;7.50;3.70;;;;;;;9.01;71.76;99628.98;1746878;82;21058;-71
2021/06/01 01:20:06;;;;;;;11.25;4.42;;;;;;;9.10;71.62;99618.31;1748568;82;21058;-71
2021/06/01 01:22:39;;;;;;;6.08;3.70;;;;;;;9.07;71.67;99619.84;1745888;82;21639;-71
2021/06/01 01:25:39;;;;;;;6.63;3.70;;;;;;;8.96;71.88;99624.00;1702419;84;21043;-71
2021/06/01 01:28:38;;;;;;;8.95;4.00;;;;;;;8.87;72.08;99615.38;1749290;81;21569;-71
2021/06/01 01:31:11;;;;;;;6.83;4.25;;;;;;;8.97;71.98;99630.14;1694451;83;21038;-71
2021/06/01 01:33:39;;;;;;;7.25;4.22;;;;;;;8.86;72.19;99634.78;1694767;84;21199;-72
2021/06/01 01:36:10;;;;;;;6.05;3.90;;;;;;;8.77;72.44;99632.75;1713867;83;21015;-71
2021/06/01 01:38:36;;;;;;;8.15;4.10;;;;;;;8.80;72.44;99636.53;1685123;85;21010;-72
2021/06/01 01:41:08;;;;;;;8.05;4.22;;;;;;;8.87;72.34;99627.25;1697408;84;21046;-71
2021/06/01 01:43:35;;;;;;;8.20;4.37;;;;;;;8.81;72.46;99640.83;1699499;84;21120;-72
2021/06/01 01:46:09;;;;;;;5.95;3.70;;;;;;;8.72;72.64;99627.80;1699475;83;21113;-71
2021/06/01 01:51:25;;;;;;;10.95;4.03;;;;;;;8.86;72.43;99642.70;1697025;84;21061;-72
2021/06/01 01:53:54;;;;;;;5.67;4.12;;;;;;;8.82;72.58;99643.84;1699794;84;21058;-72
2021/06/01 01:56:24;;;;;;;6.72;3.80;;;;;;;8.74;72.75;99635.60;1698950;84;21533;-73
2021/06/01 01:58:52;;;;;;;5.83;4.08;;;;;;;8.69;72.96;99636.72;1699454;84;21073;-73
2021/06/01 02:01:23;;;;;;;7.00;4.12;;;;;;;8.80;72.76;99641.80;1700750;84;21707;-73
2021/06/01 02:03:50;;;;;;;6.65;4.22;;;;;;;8.80;72.76;99630.77;1697358;84;21097;-73
2021/06/01 02:06:17;;;;;;;9.43;4.60;;;;;;;8.74;72.93;99638.23;1698017;84;21675;-73
2021/06/01 02:08:43;;;;;;;7.42;3.98;;;;;;;8.64;73.15;99630.90;1699932;84;21617;-73
2021/06/01 02:11:10;;;;;;;5.90;3.98;;;;;;;8.72;73.14;99635.70;1701611;84;22321;-73
2021/06/01 02:13:46;;;;;;;6.80;4.70;;;;;;;8.78;73.01;99635.77;1700225;84;21081;-73
2021/06/01 02:16:13;;;;;;;5.90;4.25;;;;;;;8.71;73.19;99631.38;1700285;84;21026;-73
2021/06/01 02:18:41;;;;;;;8.58;4.45;;;;;;;8.66;73.35;99624.23;1698839;84;21084;-73
2021/06/01 02:21:35;;;;;;;9.20;4.42;;;;;;;8.74;73.16;99628.52;1699333;84;21077;-73
2021/06/01 02:24:09;;;;;;;9.65;4.50;;;;;;;8.75;73.14;99637.30;1695686;84;21053;-73
2021/06/01 02:26:54;;;;;;;7.17;4.15;;;;;;;8.65;73.43;99631.28;1700715;84;21037;-73
2021/06/01 02:29:41;;;;;;;7.42;4.75;;;;;;;8.65;73.56;99632.59;1698995;84;21652;-73
2021/06/01 02:32:09;;;;;;;8.45;4.95;;;;;;;8.75;73.32;99630.70;1699334;84;21074;-73
2021/06/01 02:34:39;;;;;;;10.98;4.97;;;;;;;8.69;73.48;99632.77;1696221;84;21684;-73
2021/06/01 02:37:07;;;;;;;7.03;5.03;;;;;;;8.65;73.63;99636.55;1699938;84;21057;-73
2021/06/01 02:39:36;;;;;;;9.70;4.78;;;;;;;8.69;73.68;99642.48;1698576;84;21103;-73
2021/06/01 02:42:04;;;;;;;5.72;4.50;;;;;;;8.84;73.31;99642.80;1700494;84;21066;-73
2021/06/01 02:44:31;;;;;;;7.72;4.97;;;;;;;8.82;73.30;99638.58;1700529;83;22521;-73
2021/06/01 02:46:58;;;;;;;5.80;4.58;;;;;;;8.78;73.44;99639.23;1699512;84;21076;-72
2021/06/01 02:49:25;;;;;;;6.65;4.80;;;;;;;8.80;73.39;99634.72;1698559;84;21053;-73
2021/06/01 02:51:54;;;;;;;9.68;4.90;;;;;;;8.94;73.11;99635.15;1673109;84;21077;-73
2021/06/01 02:54:21;;;;;;;11.63;4.97;;;;;;;8.94;73.10;99636.47;1697561;84;21064;-73
2021/06/01 02:56:52;;;;;;;7.67;4.15;;;;;;;8.90;73.22;99640.26;1701543;84;21640;-73
2021/06/01 02:59:19;;;;;;;6.40;4.50;;;;;;;8.87;73.24;99645.72;1685732;84;21695;-73
2021/06/01 03:01:50;;;;;;;7.80;4.35;;;;;;;9.04;73.00;99639.81;1700146;84;21065;-73
2021/06/01 03:04:16;;;;;;;5.40;4.05;;;;;;;9.10;72.81;99644.69;1700862;84;21528;-72
2021/06/01 03:06:43;;;;;;;7.33;4.17;;;;;;;9.06;72.80;99644.52;1700743;84;21649;-72
2021/06/01 03:09:11;;;;;;;9.50;3.80;;;;;;;9.05;72.84;99637.55;1700618;84;21072;-72
2021/06/01 03:11:37;;;;;;;7.85;4.20;;;;;;;9.18;72.58;99638.42;1700845;84;21029;-72
2021/06/01 03:14:05;;;;;;;7.92;4.20;;;;;;;9.26;72.43;99645.37;1700050;84;21086;-72
2021/06/01 03:16:32;;;;;;;6.47;4.17;;;;;;;9.27;72.37;99634.33;1695486;84;21151;-72
2021/06/01 03:18:58;;;;;;;8.20;3.90;;;;;;;9.28;72.36;99630.26;1700566;84;21105;-72
2021/06/01 03:21:24;;;;;;;6.85;4.12;;;;;;;9.46;72.02;99639.22;1699881;84;21041;-72
2021/06/01 03:23:52;;;;;;;9.55;4.00;;;;;;;9.50;71.90;99640.69;1698308;84;21030;-72
2021/06/01 03:26:18;;;;;;;5.80;3.70;;;;;;;9.50;71.85;99639.38;1700347;84;21621;-72
2021/06/01 03:28:45;;;;;;;7.45;3.67;;;;;;;9.59;71.68;99637.91;1695417;84;21608;-72
2021/06/01 03:31:11;;;;;;;5.78;4.10;;;;;;;9.83;71.41;99639.34;1691336;84;21648;-73
2021/06/01 03:33:38;;;;;;;6.50;3.87;;;;;;;10.19;71.03;99636.88;1690954;84;21362;-72
2021/06/01 03:36:05;;;;;;;5.00;3.85;;;;;;;10.64;69.55;99640.72;1690326;84;21073;-72
2021/06/01 03:38:35;;;;;;;6.58;4.08;;;;;;;11.03;68.24;99634.42;1692818;84;21133;-72
2021/06/01 03:41:01;;;;;;;5.65;3.98;;;;;;;11.51;66.36;99628.19;1690204;84;21708;-72
2021/06/01 03:46:10;;;;;;;8.25;4.22;;;;;;;12.72;63.01;99630.25;1805491;79;23073;-72
2021/06/01 03:48:37;;;;;;;8.60;4.40;;;;;;;12.98;61.80;99629.92;1773163;80;21687;-73
2021/06/01 03:51:03;;;;;;;5.70;3.60;;;;;;;13.32;60.58;99621.83;1772394;80;21576;-73
2021/06/01 03:53:31;;;;;;;5.72;4.03;;;;;;;13.63;59.53;99621.91;1782183;80;21042;-73
2021/06/01 03:55:59;;;;;;;5.40;4.22;;;;;;;13.83;57.58;99621.03;1765664;80;21608;-71
2021/06/01 03:58:26;;;;;;;9.90;4.03;;;;;;;14.00;57.32;99614.28;1760364;81;21564;-72
2021/06/01 04:00:52;;;;;;;7.87;4.60;;;;;;;14.33;56.33;99616.77;1759043;81;21565;-72
2021/06/01 04:03:18;;;;;;;8.05;4.42;;;;;;;14.47;55.64;99610.23;1759167;81;21916;-72
2021/06/01 04:05:45;;;;;;;7.33;4.17;;;;;;;14.63;55.06;99616.34;1788327;80;21561;-72
2021/06/01 04:08:12;;;;;;;6.85;4.37;;;;;;;14.83;54.45;99618.08;1791833;80;21046;-72
2021/06/01 04:10:39;;;;;;;5.75;4.40;;;;;;;14.98;53.33;99604.37;1791898;80;21112;-72
2021/06/01 04:13:07;;;;;;;8.00;4.33;;;;;;;15.11;53.20;99608.91;1791909;80;21022;-72
2021/06/01 04:15:35;;;;;;;5.87;4.40;;;;;;;15.33;53.02;99604.27;1769512;80;21558;-72
2021/06/01 04:18:04;;;;;;;6.40;4.15;;;;;;;15.58;52.27;99610.00;1761880;80;21062;-72
2021/06/01 04:20:32;;;;;;;8.28;4.83;;;;;;;15.73;50.55;99607.22;1769885;80;21565;-72
2021/06/01 04:22:58;;;;;;;6.97;4.30;;;;;;;15.65;51.05;99611.08;1763461;81;21037;-72
2021/06/01 04:25:24;;;;;;;6.12;4.17;;;;;;;15.71;50.78;99607.84;1766512;81;21632;-72
2021/06/01 04:27:53;;;;;;;5.65;3.80;;;;;;;15.71;50.61;99610.51;1767703;80;21062;-72
2021/06/01 04:30:19;;;;;;;6.10;3.98;;;;;;;15.70;50.73;99615.02;1760413;81;21112;-73
2021/06/01 04:32:46;;;;;;;7.08;4.10;;;;;;;15.86;50.54;99604.26;1787132;80;21045;-73
2021/06/01 04:35:14;;;;;;;5.10;3.67;;;;;;;16.01;49.55;99616.60;1790018;80;21572;-73
2021/06/01 04:37:42;;;;;;;5.22;3.62;;;;;;;16.00;49.66;99605.11;1773089;80;21284;-72
2021/06/01 04:40:12;;;;;;;7.03;3.45;;;;;;;16.09;48.82;99613.20;1760128;80;21092;-72
2021/06/01 04:42:37;;;;;;;5.15;3.52;;;;;;;16.05;49.15;99608.17;1769932;80;21565;-72
2021/06/01 04:45:07;;;;;;;8.60;3.80;;;;;;;16.14;49.13;99602.92;1768053;80;21074;-72
2021/06/01 04:47:35;;;;;;;6.80;3.55;;;;;;;16.38;48.74;99599.72;1761964;80;21308;-72
2021/06/01 04:50:01;;;;;;;5.85;3.50;;;;;;;16.59;48.39;99598.64;1767942;81;21039;-72
2021/06/01 04:52:27;;;;;;;5.50;3.42;;;;;;;16.73;47.85;99602.11;1761231;81;21078;-72
2021/06/01 04:54:54;;;;;;;7.37;3.60;;;;;;;16.78;46.97;99593.15;1755278;81;21035;-72
2021/06/01 04:57:20;;;;;;;6.20;3.90;;;;;;;16.89;46.74;99593.41;1758686;80;21093;-72
2021/06/01 04:59:47;;;;;;;5.75;3.67;;;;;;;16.55;46.33;99563.39;1764915;80;21027;-72
2021/06/01 05:02:13;;;;;;;4.50;3.17;;;;;;;16.53;46.26;99590.23;1772855;80;21538;-72
2021/06/01 05:04:40;;;;;;;6.28;3.60;;;;;;;16.36;47.03;99591.87;1782218;80;21589;-72
2021/06/01 05:07:06;;;;;;;6.87;3.65;;;;;;;16.35;47.24;99596.85;1777452;81;21007;-73
2021/06/01 05:09:32;;;;;;;6.83;3.80;;;;;;;16.45;47.21;99590.13;1777766;81;21007;-73
2021/06/01 05:11:58;;;;;;;5.12;3.35;;;;;;;16.60;46.94;99594.95;1757614;81;21027;-73
2021/06/01 05:14:25;;;;;;;4.60;3.20;;;;;;;16.64;46.62;99599.02;1742985;81;21206;-73
2021/06/01 05:16:54;;;;;;;5.55;3.22;;;;;;;16.60;46.72;99594.95;1742213;81;21071;-73
2021/06/01 05:19:21;;;;;;;6.35;3.62;;;;;;;16.58;46.30;99594.28;1740814;82;21082;-73
2021/06/01 05:21:47;;;;;;;7.12;3.37;;;;;;;16.52;46.44;99596.56;1740862;82;21099;-73
2021/06/01 05:24:13;;;;;;;5.65;3.12;;;;;;;16.56;45.91;99589.09;1740998;82;21080;-73
2021/06/01 05:26:42;;;;;;;4.87;2.98;;;;;;;16.54;45.88;99593.73;1740661;82;21134;-73
2021/06/01 05:29:08;;;;;;;5.53;3.10;;;;;;;16.49;45.97;99586.17;1740901;82;21070;-74
2021/06/01 05:34:08;;;;;;;4.50;2.77;;;;;;;16.28;46.09;99588.27;1740898;82;21050;-73
2021/06/01 05:36:38;;;;;;;6.42;3.15;;;;;;;16.21;46.25;99596.02;1746486;81;21038;-73
2021/06/01 05:39:07;;;;;;;5.83;2.70;;;;;;;16.21;46.65;99584.88;1753160;81;21044;-73
2021/06/01 05:41:33;;;;;;;6.28;3.17;;;;;;;16.29;46.74;99587.28;1765615;81;21054;-73
2021/06/01 05:44:02;;;;;;;4.12;2.70;;;;;;;16.40;47.29;99587.08;1767095;81;21154;-74
2021/06/01 05:46:29;;;;;;;5.17;2.70;;;;;;;16.43;46.68;99600.11;1766500;80;21069;-73
2021/06/01 05:48:55;;;;;;;4.45;2.47;;;;;;;16.37;46.26;99592.73;1754425;82;21039;-73
2021/06/01 05:51:28;;;;;;;4.35;2.83;;;;;;;16.34;46.30;99592.53;1783990;80;21038;-73
2021/06/01 05:53:54;;;;;;;4.37;2.83;;;;;;;16.32;46.84;99596.34;1777367;80;21062;-73
2021/06/01 05:56:20;;;;;;;3.72;3.00;;;;;;;16.42;46.61;99594.92;1779551;80;21038;-74
2021/06/01 05:58:46;;;;;;;4.72;2.70;;;;;;;16.42;46.11;99589.11;1778588;80;21507;-73
2021/06/01 06:01:14;;;;;;;6.28;2.95;;;;;;;16.31;46.52;99586.64;1772992;80;21080;-72
2021/06/01 06:03:42;;;;;;;3.65;2.87;;;;;;;16.22;46.86;99593.20;1768455;80;21026;-73
2021/06/01 06:06:11;;;;;;;7.00;3.20;;;;;;;16.10;47.50;99588.21;1773555;80;20999;-72
2021/06/01 06:08:37;;;;;;;9.10;2.90;;;;;;;16.03;47.75;99590.64;1788718;80;21070;-73
2021/06/01 06:11:05;;;;;;;7.37;2.80;;;;;;;16.06;47.62;99594.33;1783563;80;21062;-73
2021/06/01 06:13:32;;;;;;;5.40;3.22;;;;;;;16.06;48.04;99594.33;1754816;81;21014;-74
2021/06/01 06:15:59;;;;;;;6.10;2.65;;;;;;;16.13;47.76;99593.27;1771325;80;21030;-74
2021/06/01 06:18:30;;;;;;;5.42;3.12;;;;;;;16.14;47.47;99589.11;1774702;80;21046;-73
2021/06/01 06:21:02;;;;;;;7.65;3.35;;;;;;;16.07;47.33;99599.19;1763997;80;21101;-72
2021/06/01 06:23:31;;;;;;;5.67;2.90;;;;;;;15.95;47.71;99595.88;1766895;80;21487;-75
2021/06/01 06:25:58;;;;;;;6.60;2.80;;;;;;;15.89;48.73;99596.81;1763224;80;21022;-73
2021/06/01 06:28:25;;;;;;;5.70;2.62;;;;;;;15.94;47.83;99590.19;1754165;80;21031;-73
2021/06/01 06:30:52;;;;;;;6.00;2.80;;;;;;;15.98;48.04;99590.23;1763822;80;21037;-73
2021/06/01 06:33:18;;;;;;;4.10;2.35;;;;;;;16.14;47.19;99598.45;1776616;80;21030;-74
2021/06/01 06:35:44;;;;;;;4.85;2.80;;;;;;;16.34;46.21;99590.34;1763851;80;21676;-73
2021/06/01 06:38:11;;;;;;;5.58;2.40;;;;;;;16.51;46.19;99594.88;1783144;80;21561;-73
2021/06/01 06:40:38;;;;;;;7.42;2.60;;;;;;;16.65;45.50;99602.02;1761050;80;21563;-73
2021/06/01 06:43:04;;;;;;;5.35;2.40;;;;;;;16.58;45.54;99599.63;1754641;80;21076;-73
2021/06/01 06:45:32;;;;;;;5.87;2.55;;;;;;;16.55;45.44;99593.58;1771231;80;21129;-74
2021/06/01 06:48:05;;;;;;;5.08;2.65;;;;;;;16.46;45.76;99586.48;1779039;80;21089;-75
2021/06/01 06:50:29;;;;;;;4.10;2.58;;;;;;;16.47;46.25;99586.83;1732849;82;21637;-74
2021/06/01 06:52:56;;;;;;;4.53;2.40;;;;;;;16.54;45.34;99593.23;1773966;80;21031;-74
2021/06/01 06:55:22;;;;;;;4.90;2.40;;;;;;;16.54;45.71;99588.40;1759680;80;21026;-74
2021/06/01 06:57:49;;;;;;;5.05;2.72;;;;;;;16.48;45.35;99580.52;1772477;80;21026;-76
2021/06/01 07:00:18;;;;;;;5.30;2.70;;;;;;;16.44;46.50;99584.45;1778696;80;21050;-76
2021/06/01 07:02:44;;;;;;;6.45;2.77;;;;;;;16.55;46.04;99582.91;1777857;80;21028;-75
2021/06/01 07:05:13;;;;;;;5.33;2.37;;;;;;;16.58;46.05;99595.61;1764408;80;21042;-75
2021/06/01 07:07:40;;;;;;;4.92;2.22;;;;;;;16.58;44.78;99595.61;1785365;80;21036;-77
2021/06/01 07:10:09;;;;;;;6.10;2.70;;;;;;;16.53;43.90;99592.91;1769372;80;21046;-75
2021/06/01 07:12:35;;;;;;;3.70;2.10;;;;;;;16.14;43.71;99551.77;1773848;80;21039;-74
2021/06/01 07:15:26;;;;;;;3.60;2.58;;;;;;;16.27;44.46;99599.95;1768557;80;21058;-73
2021/06/01 07:17:57;;;;;;;5.95;2.50;;;;;;;16.09;44.83;99588.72;1779293;80;20991;-74
2021/06/01 07:20:25;;;;;;;4.97;2.35;;;;;;;15.97;45.17;99596.55;1775616;80;21034;-75
2021/06/01 07:22:51;;;;;;;6.40;2.22;;;;;;;16.07;44.75;99591.19;1755203;80;21558;-74
2021/06/01 07:25:18;;;;;;;6.10;2.30;;;;;;;16.19;45.43;99592.69;1782395;80;21577;-75
2021/06/01 07:27:44;;;;;;;4.53;2.40;;;;;;;16.32;45.10;99595.00;1754775;80;21599;-75
2021/06/01 07:30:13;;;;;;;7.55;2.50;;;;;;;16.32;45.36;99597.16;1769995;80;21105;-74
2021/06/01 07:32:41;;;;;;;4.05;2.20;;;;;;;16.32;45.15;99595.00;1767821;80;21605;-74
2021/06/01 07:35:10;;;;;;;3.35;2.20;;;;;;;16.35;44.85;99586.69;1767320;80;21049;-75
2021/06/01 07:37:38;;;;;;;5.53;2.40;;;;;;;16.27;44.69;99597.28;1760051;80;21010;-76
2021/06/01 07:40:07;;;;;;;6.33;2.50;;;;;;;16.10;44.60;99595.73;1752960;80;21591;-76
2021/06/01 07:42:33;;;;;;;4.03;2.47;;;;;;;15.87;45.01;99592.61;1762098;80;21142;-75
2021/06/01 07:45:02;;;;;;;3.52;2.35;;;;;;;15.63;45.62;99597.08;1758919;80;21092;-76
2021/06/01 07:47:29;;;;;;;6.78;2.50;;;;;;;15.44;45.65;99597.95;1747452;81;21112;-75
2021/06/01 07:49:58;;;;;;;6.30;2.60;;;;;;;15.24;46.20;99605.95;1754722;80;21039;-75
2021/06/01 07:52:27;;;;;;;4.15;2.65;;;;;;;15.05;46.61;99604.14;1757921;81;21071;-73
2021/06/01 07:54:53;;;;;;;6.10;2.37;;;;;;;14.89;46.99;99609.53;1764859;80;21045;-75
2021/06/01 07:57:22;;;;;;;4.87;2.40;;;;;;;14.78;47.23;99613.66;1751139;81;21067;-75
2021/06/01 07:59:48;;;;;;;5.25;2.40;;;;;;;14.83;47.70;99607.42;1770374;81;21570;-75
2021/06/01 08:02:18;;;;;;;4.70;2.50;;;;;;;14.83;47.58;99610.09;1754286;80;21066;-74
2021/06/01 08:04:45;;;;;;;4.17;2.50;;;;;;;14.80;47.75;99601.06;1741730;81;21035;-77
2021/06/01 08:07:13;;;;;;;3.95;2.22;;;;;;;14.78;47.98;99603.01;1764020;80;21062;-75
2021/06/01 08:09:39;;;;;;;4.90;2.80;;;;;;;14.78;47.84;99595.52;1765629;80;21062;-75
2021/06/01 08:12:07;;;;;;;4.45;2.55;;;;;;;14.72;48.25;99588.95;1715266;81;21048;-76
2021/06/01 08:14:34;;;;;;;5.05;2.60;;;;;;;14.67;48.10;99592.52;1702604;84;21038;-76
2021/06/01 08:17:03;;;;;;;4.30;2.50;;;;;;;14.64;48.35;99598.06;1687234;83;21103;-76
2021/06/01 08:19:33;;;;;;;4.53;2.40;;;;;;;14.77;49.02;99592.50;1722313;81;21066;-76
2021/06/01 08:22:11;;;;;;;4.20;2.62;;;;;;;15.01;48.73;99581.44;1700877;83;21732;-78
2021/06/01 08:24:29;;;;;;;7.65;2.70;;;;;;;15.11;48.07;99573.45;1697568;84;21078;-76
2021/06/01 08:26:55;;;;;;;5.00;2.60;;;;;;;15.09;47.90;99585.59;1750225;80;21087;-77
2021/06/01 08:29:22;;;;;;;5.12;2.60;;;;;;;15.04;47.81;99581.17;1756427;80;21006;-77
2021/06/01 08:31:49;;;;;;;6.45;2.60;;;;;;;15.04;48.02;99578.52;1756582;80;21039;-78
2021/06/01 08:34:15;;;;;;;4.55;2.30;;;;;;;15.06;47.43;99581.86;1714832;81;21043;-77
2021/06/01 08:36:41;;;;;;;5.15;2.60;;;;;;;15.03;47.55;99582.98;1708656;84;21102;-77
2021/06/01 08:39:09;;;;;;;6.53;2.50;;;;;;;15.04;47.70;99573.19;1758434;80;21019;-76
2021/06/01 08:41:38;;;;;;;7.92;2.87;;;;;;;15.14;47.89;99578.02;1759793;80;21649;-75
2021/06/01 08:44:05;;;;;;;5.37;2.35;;;;;;;15.27;46.74;99580.86;1755974;80;21024;-76
2021/06/01 08:46:33;;;;;;;6.80;2.35;;;;;;;15.31;46.34;99571.62;1756595;81;21097;-75
2021/06/01 08:49:01;;;;;;;2.85;2.15;;;;;;;15.36;46.74;99577.36;1750213;81;21618;-77
2021/06/01 08:51:27;;;;;;;4.87;2.60;;;;;;;15.35;46.18;99580.49;1744326;80;21021;-77
2021/06/01 08:53:57;;;;;;;5.72;2.60;;;;;;;15.29;46.89;99579.73;1748201;81;21151;-76
2021/06/01 08:56:23;;;;;;;5.10;2.30;;;;;;;15.24;47.79;99572.19;1750313;80;21118;-75
2021/06/01 08:58:50;;;;;;;4.92;2.37;;;;;;;15.27;47.32;99561.73;1781861;80;21389;-75
2021/06/01 09:01:19;;;;;;;4.97;2.40;;;;;;;15.32;46.17;99573.27;1742210;81;21006;-75
2021/06/01 09:03:51;;;;;;;6.70;2.20;;;;;;;15.28;46.09;99569.22;1764702;80;21603;-75
2021/06/01 09:06:21;;;;;;;3.70;2.40;;;;;;;15.21;46.40;99576.95;1741194;81;21408;-75
2021/06/01 09:09:02;;;;;;;7.28;2.70;;;;;;;15.18;46.01;99578.55;1769845;80;21011;-74
2021/06/01 09:22:39;;;;;;;5.15;2.30;;;;;;;15.84;44.63;99557.75;1755549;81;21061;-73
2021/06/01 09:25:17;;;;;;;6.10;2.25;;;;;;;15.95;44.25;99564.70;1759679;80;21030;-73
2021/06/01 09:27:51;;;;;;;5.37;2.40;;;;;;;15.94;44.17;99570.19;1790958;80;21588;-73
2021/06/01 09:30:41;;;;;;;3.65;2.10;;;;;;;15.85;43.80;99563.91;1701937;83;21035;-73
2021/06/01 09:33:22;;;;;;;5.87;2.50;;;;;;;15.75;44.48;99558.57;1744877;81;21094;-74
2021/06/01 09:36:00;;;;;;;3.87;2.10;;;;;;;15.73;45.38;99553.39;1750808;80;21070;-73
2021/06/01 09:38:35;;;;;;;5.60;2.47;;;;;;;15.82;43.95;99561.52;1734848;80;21031;-74
2021/06/01 09:41:16;;;;;;;3.67;2.40;;;;;;;15.78;43.56;99558.30;1755298;81;21098;-73
2021/06/01 09:44:35;;;;;;;4.75;2.40;;;;;;;15.68;43.17;99564.98;1806374;79;23070;-75
2021/06/01 09:47:04;;;;;;;5.15;3.00;;;;;;;15.55;43.45;99560.48;1780142;79;21067;-75
2021/06/01 09:49:31;;;;;;;6.97;3.00;;;;;;;15.53;43.60;99551.78;1802461;78;21561;-73
2021/06/01 09:52:08;;;;;;;4.10;2.70;;;;;;;15.60;43.80;99557.36;1776142;80;21101;-73
2021/06/01 09:54:41;;;;;;;5.30;2.30;;;;;;;15.73;43.56;99557.89;1774496;78;21348;-74
2021/06/01 09:57:23;;;;;;;4.90;2.47;;;;;;;15.91;43.64;99552.66;1777334;80;21046;-74
2021/06/01 10:00:17;;;;;;;6.35;2.35;;;;;;;16.08;43.22;99551.02;1782172;78;21035;-74
2021/06/01 10:02:54;;;;;;;4.17;2.30;;;;;;;16.15;42.99;99552.59;1779896;80;21034;-79
2021/06/01 10:05:23;;;;;;;6.45;2.10;;;;;;;16.04;42.73;99554.98;1773495;78;21049;-79
2021/06/01 10:07:52;;;;;;;4.45;2.22;;;;;;;15.93;42.29;99551.17;1788297;80;21042;-77
2021/06/01 10:10:23;;;;;;;6.12;2.30;;;;;;;15.82;42.54;99544.19;1779229;78;21018;-77
2021/06/01 10:12:57;;;;;;;8.23;2.50;;;;;;;15.78;42.30;99541.44;1766072;80;21078;-76
2021/06/01 10:15:25;;;;;;;4.95;2.27;;;;;;;15.82;42.73;99556.18;1772452;78;21026;-78
2021/06/01 10:17:51;;;;;;;3.77;2.33;;;;;;;15.89;41.85;99547.95;1784488;78;21640;-77
2021/06/01 10:20:21;;;;;;;2.77;2.05;;;;;;;15.89;41.94;99539.48;1770324;80;21030;-78
2021/06/01 10:22:49;;;;;;;5.37;2.35;;;;;;;15.91;42.54;99547.33;1782705;78;21054;-76
2021/06/01 10:25:16;;;;;;;4.55;2.12;;;;;;;15.97;42.38;99545.88;1780148;80;21073;-77
2021/06/01 10:27:45;;;;;;;6.65;2.37;;;;;;;16.00;42.02;99560.27;1788840;78;21047;-77
2021/06/01 10:30:12;;;;;;;5.87;2.30;;;;;;;15.97;41.99;99546.73;1783074;80;21058;-76
2021/06/01 10:32:46;;;;;;;4.95;2.12;;;;;;;15.94;41.48;99554.19;1780129;78;21081;-77
2021/06/01 10:35:17;;;;;;;4.35;2.25;;;;;;;15.91;40.75;99542.47;1776140;78;21150;-76
2021/06/01 10:52:08;;;;;;;4.45;2.30;;;;;;;16.18;40.92;99534.97;1725582;82;21596;-74
2021/06/01 10:54:46;;;;;;;5.90;2.25;;;;;;;16.12;40.53;99543.06;1717281;82;21044;-73
2021/06/01 10:57:16;;;;;;;4.40;2.30;;;;;;;16.03;40.81;99546.13;1713963;82;21049;-74
2021/06/01 11:02:19;;;;;;;4.37;2.30;;;;;;;16.07;41.96;99535.17;1696084;82;21074;-73
2021/06/01 11:05:12;;;;;;;4.97;2.05;;;;;;;16.26;41.57;99529.72;1686598;84;21103;-72
2021/06/01 11:07:58;;;;;;;4.67;2.12;;;;;;;16.39;41.68;99540.02;1693288;84;21067;-74
2021/06/01 11:10:43;;;;;;;3.60;2.35;;;;;;;16.42;40.34;99526.39;1681088;84;21045;-74
2021/06/01 11:13:28;;;;;;;3.52;2.02;;;;;;;16.28;40.70;99537.56;1698791;82;21059;-75
2021/06/01 11:15:59;;;;;;;3.72;2.35;;;;;;;16.15;41.52;99525.44;1715209;84;21075;-75
2021/06/01 11:18:31;;;;;;;3.12;2.35;;;;;;;16.14;40.98;99544.23;1720076;82;21097;-74
2021/06/01 11:21:31;;;;;;;5.92;2.37;;;;;;;16.16;40.71;99547.13;1715854;82;21082;-73
2021/06/01 11:24:30;;;;;;;2.90;2.30;;;;;;;16.25;40.95;99536.54;1679851;84;21126;-74
2021/06/01 11:35:33;;;;;;;4.78;2.27;;;;;;;16.45;40.69;99527.92;1713128;81;21082;-74
2021/06/01 11:38:23;;;;;;;5.35;2.00;;;;;;;16.39;40.78;99537.35;1677545;84;21069;-73
2021/06/01 11:41:01;;;;;;;4.50;2.02;;;;;;;16.06;40.54;99480.97;1740743;82;21599;-74
2021/06/01 11:43:24;;;;;;;5.92;2.00;;;;;;;16.22;40.31;99518.50;1742045;81;21083;-74
2021/06/01 11:46:14;;;;;;;4.58;2.20;;;;;;;16.11;40.84;99530.70;1728692;82;21054;-74
2021/06/01 11:51:27;;;;;;;64.90;37.45;;;;;;;16.08;40.03;99528.34;1735634;82;21030;-73
2021/06/01 11:54:07;;;;;;;53.35;41.08;;;;;;;16.08;40.68;99520.85;1737613;82;21118;-73
2021/06/01 11:56:51;;;;;;;6.05;2.47;;;;;;;16.14;41.02;99518.42;1738599;81;21031;-72
2021/06/01 12:19:13;;;;;;;3.95;2.30;;;;;;;16.17;41.27;99528.78;1746259;82;21017;-73
2021/06/01 12:21:50;;;;;;;6.20;2.30;;;;;;;16.25;41.49;99529.88;1726818;82;21081;-73
2021/06/01 12:24:23;;;;;;;2.45;1.90;;;;;;;16.36;41.10;99528.33;1731231;82;21022;-72
2021/06/01 12:32:28;;;;;;;3.65;2.27;;;;;;;16.44;40.97;99513.72;1740632;82;21035;-72
2021/06/01 12:46:11;;;;;;;4.53;2.20;;;;;;;16.42;38.99;99534.40;1729702;82;21610;-72
2021/06/01 13:23:21;;;;;;;5.17;2.33;;;;;;;16.01;40.49;99513.44;1747109;82;21051;-74
2021/06/01 13:40:34;;;;;;;6.62;2.42;;;;;;;15.78;41.59;99510.30;1744948;81;21122;-74
2021/06/01 13:46:07;;;;;;;4.37;2.47;;;;;;;15.83;41.80;99506.73;1750151;82;21086;-73
2021/06/01 13:51:33;;;;;;;6.40;2.35;;;;;;;15.91;40.93;99509.13;1746271;82;21042;-74
2021/06/01 13:56:23;;;;;;;5.50;2.72;;;;;;;16.11;40.23;99502.70;1673973;82;21024;-74
2021/06/01 14:01:39;;;;;;;27.90;8.05;;;;;;;16.20;41.22;99529.83;1751429;81;21022;-73
2021/06/01 14:09:51;;;;;;;8.60;2.60;;;;;;;16.01;39.99;99531.25;1771568;80;21340;-73
2021/06/01 14:15:23;;;;;;;3.10;2.25;;;;;;;15.84;40.57;99523.08;1740203;80;21024;-73
2021/06/01 14:20:44;;;;;;;7.05;3.00;;;;;;;15.79;41.03;99529.29;1734116;81;20995;-73
2021/06/01 14:31:27;;;;;;;5.15;2.72;;;;;;;15.76;41.09;99511.44;1748527;82;20999;-75
2021/06/01 14:36:46;;;;;;;6.25;2.75;;;;;;;15.78;41.47;99515.64;1744898;82;21045;-73